Time;durP1;ratioP1;P1;durP2;ratioP2;P2;SDS_P1;SDS_P2;PMS_P1;PMS_P2;Temp;Humidity;BMP_temperature;BMP_pressure;BME280_temperature;BME280_humidity;BME280_pressure;Samples;Min_cycle;Max_cycle;Signal;HPM_P1;HPM_P2
2021/03/19 00:08:33;;;;;;;10.00;3.73;;;1.30;99.90;;;;;;6169844;23;20456;-81
2021/03/19 00:11:02;;;;;;;9.87;3.60;;;1.30;99.90;;;;;;6174998;23;20173;-81
2021/03/19 00:13:40;;;;;;;9.80;3.60;;;1.30;99.90;;;;;;6171747;23;20157;-82
2021/03/19 00:16:09;;;;;;;10.73;3.13;;;1.30;99.90;;;;;;6171386;23;20704;-81
2021/03/19 00:18:36;;;;;;;7.83;3.03;;;1.20;99.90;;;;;;6167295;23;20232;-81
2021/03/19 00:21:11;;;;;;;6.33;3.07;;;1.20;99.90;;;;;;6164021;23;20228;-81
2021/03/19 00:23:37;;;;;;;10.57;3.60;;;1.20;99.90;;;;;;6174181;23;20152;-82
2021/03/19 00:26:03;;;;;;;13.03;3.77;;;1.20;99.90;;;;;;6149691;23;20216;-81
2021/03/19 00:28:29;;;;;;;9.60;3.30;;;1.10;99.90;;;;;;6147146;23;20196;-81
2021/03/19 00:30:56;;;;;;;8.63;2.97;;;1.10;99.90;;;;;;6173109;23;20180;-82
2021/03/19 00:33:34;;;;;;;8.30;3.37;;;1.20;99.90;;;;;;6151319;23;20173;-81
2021/03/19 00:36:00;;;;;;;8.40;3.63;;;1.30;99.90;;;;;;6178736;23;20155;-82
2021/03/19 00:38:29;;;;;;;10.30;4.40;;;1.20;99.90;;;;;;6178543;23;20207;-82
2021/03/19 00:40:55;;;;;;;9.50;4.13;;;1.20;99.90;;;;;;6150862;23;20177;-82
2021/03/19 00:43:21;;;;;;;10.97;4.23;;;1.10;99.90;;;;;;6172915;23;20156;-81
2021/03/19 00:45:48;;;;;;;11.10;4.77;;;1.10;99.90;;;;;;6148511;23;20157;-81
2021/03/19 00:48:14;;;;;;;12.00;4.23;;;1.00;99.90;;;;;;6169721;23;20593;-81
2021/03/19 00:50:42;;;;;;;12.27;5.07;;;1.10;99.90;;;;;;6165425;23;20180;-81
2021/03/19 00:53:09;;;;;;;11.03;5.40;;;1.10;99.90;;;;;;6165319;23;20153;-81
2021/03/19 00:55:37;;;;;;;16.63;6.23;;;1.20;99.90;;;;;;6164229;23;20149;-81
2021/03/19 00:58:04;;;;;;;17.93;6.70;;;1.20;99.90;;;;;;6162664;23;20147;-81
2021/03/19 01:00:33;;;;;;;11.80;5.90;;;1.10;99.90;;;;;;6158555;23;20172;-81
2021/03/19 01:02:58;;;;;;;13.07;5.70;;;1.10;99.90;;;;;;6160314;23;20155;-81
2021/03/19 01:05:47;;;;;;;10.77;5.00;;;1.10;99.90;;;;;;6169012;23;20170;-81
2021/03/19 01:16:30;;;;;;;9.77;3.47;;;1.10;99.90;;;;;;6171913;23;20240;-81
2021/03/19 01:30:09;;;;;;;8.40;3.37;;;0.70;99.90;;;;;;6174726;23;20204;-81
2021/03/19 01:33:32;;;;;;;10.17;3.90;;;0.80;99.90;;;;;;6173412;23;20157;-82
2021/03/19 01:36:50;;;;;;;8.60;3.40;;;0.80;99.90;;;;;;6181882;23;20145;-82
2021/03/19 01:48:59;;;;;;;7.97;3.00;;;0.90;99.90;;;;;;6171469;23;20176;-82
2021/03/19 01:57:30;;;;;;;6.77;3.10;;;0.80;99.90;;;;;;6165237;23;20187;-80
2021/03/19 02:00:33;;;;;;;9.13;3.53;;;0.80;99.90;;;;;;6052288;23;20158;-81
2021/03/19 02:03:37;;;;;;;10.93;3.67;;;0.90;99.90;;;;;;6170638;23;20140;-81
2021/03/19 02:06:40;;;;;;;9.77;3.87;;;0.90;99.90;;;;;;6167391;23;20156;-82
2021/03/19 02:09:43;;;;;;;7.57;2.93;;;0.80;99.90;;;;;;6169284;23;20181;-82
2021/03/19 02:12:46;;;;;;;8.53;3.43;;;0.80;99.90;;;;;;6169569;23;20152;-80
2021/03/19 02:15:55;;;;;;;8.37;3.00;;;0.80;99.90;;;;;;6142806;23;20153;-81
2021/03/19 02:22:40;;;;;;;8.00;2.90;;;0.70;99.90;;;;;;6149898;23;20163;-82
2021/03/19 02:29:13;;;;;;;9.17;3.40;;;0.70;99.90;;;;;;6174099;23;20524;-82
2021/03/19 02:42:15;;;;;;;8.70;3.80;;;0.70;99.90;;;;;;6141765;23;20157;-82
2021/03/19 02:44:42;;;;;;;8.77;3.43;;;0.70;99.90;;;;;;6106527;23;20188;-80
2021/03/19 02:47:08;;;;;;;8.70;3.13;;;0.60;99.90;;;;;;6159558;23;20239;-80
2021/03/19 02:49:34;;;;;;;6.03;2.80;;;0.60;99.90;;;;;;6175318;23;20192;-80
2021/03/19 02:52:00;;;;;;;7.33;3.57;;;0.70;99.90;;;;;;6176901;23;20185;-81
2021/03/19 02:54:26;;;;;;;8.33;3.50;;;0.70;99.90;;;;;;6173821;23;20176;-81
2021/03/19 02:56:52;;;;;;;8.33;3.43;;;0.60;99.90;;;;;;6173387;23;20251;-81
2021/03/19 02:59:18;;;;;;;8.83;3.00;;;0.60;99.90;;;;;;6171201;23;20586;-82
2021/03/19 03:01:44;;;;;;;8.07;3.30;;;0.60;99.90;;;;;;6174891;23;20153;-81
2021/03/19 03:04:11;;;;;;;8.67;3.43;;;0.60;99.90;;;;;;6173612;23;20157;-82
2021/03/19 03:06:42;;;;;;;8.43;3.77;;;0.60;99.90;;;;;;6175331;23;20183;-81
2021/03/19 03:09:14;;;;;;;7.67;3.40;;;0.50;99.90;;;;;;6167052;23;20648;-80
2021/03/19 03:11:40;;;;;;;8.17;3.60;;;0.50;99.90;;;;;;6174132;23;20134;-80
2021/03/19 03:14:13;;;;;;;9.53;3.50;;;0.60;99.90;;;;;;6169799;23;20152;-80
2021/03/19 03:16:39;;;;;;;7.63;3.10;;;0.60;99.90;;;;;;6169019;23;20173;-80
2021/03/19 03:19:07;;;;;;;6.87;2.53;;;0.70;99.90;;;;;;6170088;23;20610;-80
2021/03/19 03:21:33;;;;;;;6.97;3.00;;;0.50;99.90;;;;;;6170113;23;20157;-80
2021/03/19 03:23:59;;;;;;;8.47;3.00;;;0.60;99.90;;;;;;6167978;23;20164;-80
2021/03/19 03:26:25;;;;;;;7.30;3.10;;;0.60;99.90;;;;;;6164242;23;20177;-80
2021/03/19 03:28:51;;;;;;;7.27;3.20;;;0.60;99.90;;;;;;6162272;23;20245;-80
2021/03/19 03:31:16;;;;;;;8.90;3.20;;;0.60;99.90;;;;;;6163764;23;20161;-80
2021/03/19 03:33:42;;;;;;;8.17;3.60;;;0.50;99.90;;;;;;6170558;23;20160;-82
2021/03/19 03:36:08;;;;;;;8.90;3.27;;;0.40;99.90;;;;;;6168032;23;20152;-80
2021/03/19 03:38:34;;;;;;;8.17;2.90;;;0.40;99.90;;;;;;6171682;23;20157;-81
2021/03/19 03:41:03;;;;;;;7.60;2.73;;;0.50;99.90;;;;;;6165281;23;20164;-80
2021/03/19 03:43:29;;;;;;;10.33;3.87;;;0.50;99.90;;;;;;6161216;23;20188;-80
2021/03/19 03:45:55;;;;;;;9.70;3.57;;;0.50;99.90;;;;;;6160072;23;20153;-80
2021/03/19 03:48:23;;;;;;;7.37;2.80;;;0.50;99.90;;;;;;6160857;23;20535;-81
2021/03/19 03:50:49;;;;;;;7.80;3.70;;;0.40;99.90;;;;;;6160425;23;20287;-81
2021/03/19 03:53:15;;;;;;;7.93;3.63;;;0.40;99.90;;;;;;6157752;23;20153;-80
2021/03/19 03:55:42;;;;;;;9.33;3.47;;;0.40;99.90;;;;;;6156950;23;20157;-81
2021/03/19 03:58:08;;;;;;;6.17;2.70;;;0.40;99.90;;;;;;6158159;23;20214;-80
2021/03/19 04:00:35;;;;;;;9.70;4.80;;;0.40;99.90;;;;;;6157222;23;20240;-80
2021/03/19 04:03:41;;;;;;;10.93;5.03;;;0.40;99.90;;;;;;6171022;23;20153;-81
2021/03/19 04:11:35;;;;;;;7.77;3.40;;;0.40;99.90;;;;;;6161662;23;20661;-80
2021/03/19 04:14:01;;;;;;;8.90;3.90;;;0.40;99.90;;;;;;6153346;23;20159;-81
2021/03/19 04:16:27;;;;;;;8.67;2.97;;;0.40;99.90;;;;;;6153418;23;20243;-82
2021/03/19 04:18:53;;;;;;;6.90;2.87;;;0.30;99.90;;;;;;6153458;23;20156;-80
2021/03/19 04:21:19;;;;;;;7.47;2.80;;;0.20;99.90;;;;;;6153320;23;20505;-80
2021/03/19 04:23:50;;;;;;;8.03;3.10;;;0.10;99.90;;;;;;6153524;23;20172;-80
2021/03/19 04:26:36;;;;;;;7.03;2.97;;;0.20;99.90;;;;;;6153495;23;20145;-79
2021/03/19 04:29:03;;;;;;;6.80;2.40;;;0.30;99.90;;;;;;6152550;23;20239;-80
2021/03/19 04:31:30;;;;;;;5.40;2.10;;;0.40;99.90;;;;;;6153272;23;20183;-79
2021/03/19 04:33:55;;;;;;;6.20;2.30;;;0.50;99.90;;;;;;6152646;23;20145;-80
2021/03/19 04:36:27;;;;;;;8.20;2.57;;;0.50;99.90;;;;;;6153767;23;20172;-79
2021/03/19 04:38:58;;;;;;;6.50;2.33;;;0.40;99.90;;;;;;6152925;23;20161;-81
2021/03/19 04:41:23;;;;;;;5.17;2.43;;;0.40;99.90;;;;;;6153065;23;20227;-79
2021/03/19 04:43:49;;;;;;;5.33;2.10;;;0.50;99.90;;;;;;6153326;23;20157;-79
2021/03/19 04:46:15;;;;;;;7.00;2.37;;;0.40;99.90;;;;;;6153462;23;20605;-80
2021/03/19 04:48:40;;;;;;;6.93;2.30;;;0.40;99.90;;;;;;6152921;23;20219;-79
2021/03/19 04:51:06;;;;;;;6.83;2.87;;;0.40;99.90;;;;;;6152982;23;20153;-79
2021/03/19 04:53:32;;;;;;;9.50;3.30;;;0.40;99.90;;;;;;6153297;23;20597;-78
2021/03/19 04:55:57;;;;;;;6.27;2.13;;;0.40;99.90;;;;;;6153379;23;20501;-80
2021/03/19 04:58:23;;;;;;;6.43;2.70;;;0.40;99.90;;;;;;6152954;23;20593;-81
2021/03/19 05:00:48;;;;;;;5.03;1.87;;;0.40;99.90;;;;;;6153638;23;20236;-80
2021/03/19 05:03:14;;;;;;;7.20;2.47;;;0.50;99.90;;;;;;6153556;23;20227;-80
2021/03/19 05:05:39;;;;;;;6.43;2.30;;;0.50;99.90;;;;;;6153840;23;20200;-80
2021/03/19 05:08:05;;;;;;;7.17;2.57;;;0.50;99.90;;;;;;6153707;23;20156;-80
2021/03/19 05:10:37;;;;;;;7.53;2.50;;;0.50;99.90;;;;;;6153364;23;20152;-80
2021/03/19 05:13:05;;;;;;;6.87;2.13;;;0.60;99.90;;;;;;6155029;23;20185;-80
2021/03/19 05:15:32;;;;;;;6.43;2.80;;;0.60;99.90;;;;;;6153651;23;20180;-80
2021/03/19 05:17:58;;;;;;;6.23;2.33;;;0.60;99.90;;;;;;6153654;23;20160;-80
2021/03/19 05:20:25;;;;;;;7.00;2.37;;;0.60;99.90;;;;;;6153495;23;20161;-80
2021/03/19 05:22:51;;;;;;;6.70;2.20;;;0.70;99.90;;;;;;6153616;23;20207;-80
2021/03/19 05:25:21;;;;;;;6.63;2.43;;;0.70;99.90;;;;;;6153707;23;20160;-79
2021/03/19 05:27:46;;;;;;;5.60;1.90;;;0.80;99.90;;;;;;6153296;23;20161;-81
2021/03/19 05:30:14;;;;;;;8.33;2.20;;;0.80;99.90;;;;;;6152382;23;20947;-79
2021/03/19 05:32:40;;;;;;;6.43;2.17;;;0.90;99.90;;;;;;6152735;23;20177;-81
2021/03/19 05:35:08;;;;;;;5.83;2.13;;;0.90;99.90;;;;;;6153740;23;20493;-81
2021/03/19 05:37:34;;;;;;;6.83;2.00;;;1.00;99.90;;;;;;6152254;23;20157;-81
2021/03/19 05:40:00;;;;;;;5.97;2.10;;;1.00;99.90;;;;;;6152842;23;20632;-81
2021/03/19 05:42:29;;;;;;;7.33;2.30;;;1.10;99.90;;;;;;6153283;23;20187;-80
2021/03/19 05:45:28;;;;;;;5.97;2.10;;;1.10;99.90;;;;;;6152426;23;20188;-81
2021/03/19 05:47:57;;;;;;;5.53;2.00;;;1.10;99.90;;;;;;6151025;23;20637;-81
2021/03/19 05:50:25;;;;;;;6.30;2.00;;;1.20;99.90;;;;;;6152278;23;20227;-80
2021/03/19 05:52:51;;;;;;;5.40;1.90;;;1.20;99.90;;;;;;6153236;23;20179;-81
2021/03/19 05:55:19;;;;;;;8.17;1.93;;;1.20;99.90;;;;;;6153999;23;20244;-82
2021/03/19 05:57:45;;;;;;;4.80;1.90;;;1.20;99.90;;;;;;6160629;23;20160;-80
2021/03/19 06:00:19;;;;;;;8.47;2.27;;;1.30;99.90;;;;;;6154590;23;20248;-81
2021/03/19 06:02:45;;;;;;;6.27;2.37;;;1.30;99.90;;;;;;6151638;23;20185;-82
2021/03/19 06:05:24;;;;;;;6.60;2.03;;;1.20;99.90;;;;;;6153346;23;20185;-83
2021/03/19 06:08:00;;;;;;;6.10;2.17;;;1.20;99.90;;;;;;6152865;23;20471;-84
2021/03/19 06:10:34;;;;;;;7.80;2.20;;;1.20;99.90;;;;;;6153320;23;20173;-81
2021/03/19 06:13:31;;;;;;;8.43;2.80;;;1.30;99.90;;;;;;6153323;23;20195;-81
2021/03/19 06:16:18;;;;;;;5.83;2.07;;;1.30;99.90;;;;;;6155139;23;20535;-83
2021/03/19 06:18:47;;;;;;;6.43;2.13;;;1.30;99.90;;;;;;6155032;23;20157;-81
2021/03/19 06:21:12;;;;;;;5.20;2.00;;;1.40;99.90;;;;;;6155337;23;20161;-81
2021/03/19 06:23:40;;;;;;;6.40;2.00;;;1.50;99.90;;;;;;6155543;23;20164;-81
2021/03/19 06:26:27;;;;;;;5.53;2.03;;;1.60;99.90;;;;;;6155542;23;20161;-82
2021/03/19 06:29:05;;;;;;;7.10;2.43;;;1.50;99.90;;;;;;6154611;23;20192;-81
2021/03/19 06:31:32;;;;;;;7.43;2.33;;;1.60;99.90;;;;;;6155066;23;20226;-81
2021/03/19 06:34:05;;;;;;;6.03;2.60;;;1.70;99.90;;;;;;6155341;23;20189;-81
2021/03/19 06:36:31;;;;;;;5.07;1.90;;;1.70;99.90;;;;;;6154815;23;20157;-81
2021/03/19 06:39:20;;;;;;;5.13;2.10;;;1.70;99.90;;;;;;6154576;23;20161;-82
2021/03/19 06:42:28;;;;;;;7.47;2.20;;;1.70;99.90;;;;;;6154969;23;20679;-81
2021/03/19 06:45:15;;;;;;;6.80;2.50;;;1.70;99.90;;;;;;6154624;23;20593;-81
2021/03/19 06:47:42;;;;;;;7.37;2.30;;;1.80;99.90;;;;;;6153896;23;20589;-81
2021/03/19 06:50:13;;;;;;;6.10;2.47;;;1.80;99.90;;;;;;6154530;23;20180;-81
2021/03/19 06:52:40;;;;;;;6.23;2.07;;;1.70;99.90;;;;;;6154772;23;20284;-82
2021/03/19 06:55:06;;;;;;;7.00;2.70;;;1.70;99.90;;;;;;6156495;23;20157;-82
2021/03/19 06:57:46;;;;;;;6.37;2.63;;;1.70;99.90;;;;;;6154814;23;20195;-84
2021/03/19 07:00:33;;;;;;;7.33;2.70;;;1.80;99.90;;;;;;6153850;23;20184;-81
2021/03/19 07:03:07;;;;;;;7.40;2.23;;;1.80;99.90;;;;;;6154349;23;20177;-82
2021/03/19 07:06:16;;;;;;;6.53;2.93;;;1.80;99.90;;;;;;6154661;23;20149;-82
2021/03/19 07:08:59;;;;;;;10.80;2.90;;;1.90;99.90;;;;;;6154335;23;20191;-81
2021/03/19 07:12:06;;;;;;;6.70;2.60;;;1.90;99.90;;;;;;6155882;23;20255;-81
2021/03/19 07:14:41;;;;;;;5.80;2.10;;;1.80;99.90;;;;;;6155814;23;20227;-81
2021/03/19 07:17:24;;;;;;;9.33;2.60;;;1.90;99.90;;;;;;6154233;23;20570;-81
2021/03/19 07:20:20;;;;;;;6.67;2.63;;;1.80;99.90;;;;;;6154320;23;20228;-81
2021/03/19 07:22:48;;;;;;;8.20;2.73;;;1.90;99.90;;;;;;6154767;23;20176;-81
2021/03/19 07:25:34;;;;;;;8.67;2.57;;;1.80;99.90;;;;;;6154410;23;20552;-81
2021/03/19 07:28:33;;;;;;;4.50;2.30;;;1.80;99.90;;;;;;6154897;23;20594;-81
2021/03/19 07:31:24;;;;;;;7.03;2.67;;;1.90;99.90;;;;;;6154273;23;20173;-81
2021/03/19 07:34:15;;;;;;;6.63;2.33;;;2.00;99.90;;;;;;6153952;23;20216;-82
2021/03/19 07:37:10;;;;;;;6.13;2.57;;;2.10;99.90;;;;;;6153690;23;20165;-82
2021/03/19 07:39:51;;;;;;;8.47;2.67;;;2.10;99.90;;;;;;6152584;23;20145;-82
2021/03/19 07:42:17;;;;;;;7.83;2.50;;;2.20;99.90;;;;;;6126833;23;20516;-81
2021/03/19 07:44:58;;;;;;;6.90;2.30;;;2.40;99.90;;;;;;6153522;23;20264;-81
2021/03/19 07:47:47;;;;;;;7.93;3.10;;;2.50;99.90;;;;;;6157208;23;20585;-82
2021/03/19 07:50:44;;;;;;;9.50;3.17;;;2.50;99.90;;;;;;6136662;23;20220;-83
2021/03/19 07:53:42;;;;;;;11.20;4.60;;;2.60;99.90;;;;;;6152500;23;20819;-82
2021/03/19 07:56:20;;;;;;;11.80;5.17;;;2.70;99.90;;;;;;6144464;23;20251;-82
2021/03/19 07:58:56;;;;;;;10.00;4.33;;;2.90;99.90;;;;;;6150011;23;20506;-82
2021/03/19 08:01:43;;;;;;;10.57;4.30;;;3.20;99.90;;;;;;6152874;23;20187;-81
2021/03/19 08:04:18;;;;;;;11.77;3.97;;;3.50;99.90;;;;;;6154655;23;20187;-83
2021/03/19 08:06:50;;;;;;;8.93;3.23;;;3.60;99.90;;;;;;6154640;23;20148;-82
2021/03/19 08:09:34;;;;;;;8.07;3.00;;;3.60;99.90;;;;;;6159697;23;20208;-84
2021/03/19 08:12:13;;;;;;;8.13;3.00;;;3.60;99.90;;;;;;6162016;23;20798;-82
2021/03/19 08:14:57;;;;;;;7.27;2.80;;;3.60;99.90;;;;;;6162165;23;20145;-82
2021/03/19 08:17:37;;;;;;;8.47;2.70;;;3.60;99.90;;;;;;6166825;23;20180;-83
2021/03/19 08:51:19;;;;;;;5.43;2.17;;;4.20;99.90;;;;;;6159297;23;20200;-82
2021/03/19 08:54:17;;;;;;;5.17;1.80;;;4.20;99.90;;;;;;6158240;23;20160;-83
2021/03/19 08:56:49;;;;;;;4.67;1.70;;;4.30;99.90;;;;;;6156352;23;20176;-82
2021/03/19 08:59:36;;;;;;;6.70;1.53;;;4.30;99.90;;;;;;6159229;23;20213;-82
2021/03/19 09:02:05;;;;;;;3.40;0.93;;;4.30;99.90;;;;;;6159337;23;20172;-81
2021/03/19 09:04:49;;;;;;;3.53;1.03;;;4.30;99.90;;;;;;6155330;23;20160;-82
2021/03/19 09:07:37;;;;;;;4.53;1.20;;;4.10;99.90;;;;;;6155910;23;20163;-82
2021/03/19 09:10:30;;;;;;;1.77;0.80;;;4.00;99.90;;;;;;6155406;23;20261;-82
2021/03/19 09:12:56;;;;;;;2.20;0.90;;;4.00;99.90;;;;;;6156898;23;20177;-82
2021/03/19 09:15:22;;;;;;;4.13;0.87;;;4.00;99.90;;;;;;6159535;23;20183;-82
2021/03/19 09:17:52;;;;;;;3.73;1.07;;;4.00;99.90;;;;;;6159034;23;20781;-82
2021/03/19 09:20:30;;;;;;;4.23;1.23;;;4.10;99.90;;;;;;6161549;23;20205;-82
2021/03/19 09:23:07;;;;;;;3.13;0.80;;;4.20;99.90;;;;;;6154621;23;20632;-82
2021/03/19 09:25:51;;;;;;;2.33;0.90;;;4.00;99.90;;;;;;6155044;23;20150;-83
2021/03/19 09:28:36;;;;;;;3.53;1.23;;;4.20;99.90;;;;;;6155449;23;20214;-82
2021/03/19 09:31:24;;;;;;;3.67;1.43;;;4.20;99.90;;;;;;6157916;23;20196;-82
2021/03/19 09:33:49;;;;;;;3.30;1.20;;;4.10;99.90;;;;;;6155574;23;20468;-81
2021/03/19 09:36:51;;;;;;;5.00;0.90;;;4.00;99.90;;;;;;6154774;23;20146;-82
2021/03/19 09:39:48;;;;;;;2.47;0.80;;;3.90;99.90;;;;;;6154899;23;20148;-82
2021/03/19 09:42:22;;;;;;;2.30;0.73;;;3.80;99.90;;;;;;6154358;23;20557;-82
2021/03/19 09:45:13;;;;;;;2.30;0.90;;;4.00;99.90;;;;;;6155419;23;20160;-82
2021/03/19 09:47:44;;;;;;;2.23;0.90;;;3.90;99.90;;;;;;6155570;23;20245;-82
2021/03/19 09:50:22;;;;;;;4.63;1.20;;;3.90;99.90;;;;;;6157771;23;20177;-82
2021/03/19 09:53:06;;;;;;;2.57;0.90;;;3.90;99.90;;;;;;6157440;23;20177;-82
2021/03/19 09:55:38;;;;;;;5.63;1.20;;;3.80;99.90;;;;;;6161681;23;20573;-83
2021/03/19 09:58:31;;;;;;;4.33;1.43;;;3.80;99.90;;;;;;6161206;23;20161;-82
2021/03/19 10:01:50;;;;;;;3.20;1.30;;;3.80;99.90;;;;;;6158738;23;20150;-82
2021/03/19 10:04:35;;;;;;;4.60;1.63;;;3.70;99.90;;;;;;6160698;23;20173;-82
2021/03/19 10:07:11;;;;;;;5.17;1.77;;;3.70;99.90;;;;;;6159120;23;20245;-82
2021/03/19 10:09:49;;;;;;;4.43;1.50;;;3.70;99.90;;;;;;6159528;23;20161;-82
2021/03/19 10:12:27;;;;;;;3.90;1.63;;;3.80;99.90;;;;;;6160364;23;20180;-82
2021/03/19 10:14:55;;;;;;;5.50;1.73;;;3.90;99.90;;;;;;6162754;23;20196;-82
2021/03/19 10:17:26;;;;;;;5.63;1.57;;;3.90;99.90;;;;;;6159459;23;20160;-84
2021/03/19 10:19:59;;;;;;;4.47;1.83;;;4.00;99.90;;;;;;6159554;23;20157;-81
2021/03/19 10:22:33;;;;;;;4.50;1.70;;;4.00;99.90;;;;;;6160582;23;20641;-82
2021/03/19 10:25:27;;;;;;;4.70;1.60;;;4.20;99.90;;;;;;6161242;23;20157;-82
2021/03/19 10:27:58;;;;;;;4.27;1.80;;;4.30;99.90;;;;;;6158091;23;20146;-82
2021/03/19 10:30:38;;;;;;;4.20;2.03;;;4.40;99.90;;;;;;6160999;23;20228;-82
2021/03/19 10:33:14;;;;;;;6.70;2.33;;;4.30;99.90;;;;;;6161217;23;20259;-82
2021/03/19 10:35:46;;;;;;;7.40;2.47;;;4.30;99.90;;;;;;6159724;23;20144;-82
2021/03/19 10:38:23;;;;;;;5.53;2.37;;;4.20;99.90;;;;;;6159404;23;20137;-82
2021/03/19 15:09:04;;;;;;;5.00;1.90;;;4.50;99.90;;;;;;6126808;23;20140;-86
2021/03/19 16:47:24;;;;;;;6.37;2.30;;;4.30;99.90;;;;;;6185968;23;20155;-84
2021/03/19 16:57:17;;;;;;;5.73;1.80;;;4.10;99.90;;;;;;6185960;23;20173;-84
2021/03/19 23:13:27;;;;;;;12.13;4.33;;;-0.40;99.90;;;;;;6164756;23;20228;-82
2021/03/19 23:15:58;;;;;;;10.17;4.60;;;-0.30;99.90;;;;;;6180344;23;20156;-81
2021/03/19 23:18:33;;;;;;;10.93;4.43;;;-0.50;99.90;;;;;;6181529;23;20132;-82
2021/03/19 23:41:50;;;;;;;10.23;5.40;;;-0.80;99.90;;;;;;6173195;23;20208;-81
2021/03/19 23:44:17;;;;;;;13.57;6.40;;;-0.80;99.90;;;;;;6173743;23;20149;-81
2021/03/19 23:46:47;;;;;;;23.73;9.90;;;-1.00;99.90;;;;;;6154102;23;20192;-82
2021/03/19 23:49:19;;;;;;;23.47;12.47;;;-1.00;99.90;;;;;;6178153;23;20176;-82
2021/03/19 23:51:48;;;;;;;32.53;16.63;;;-0.90;99.90;;;;;;6176139;23;20168;-81
